createdAt,value
2022-10-28T00:01:19.631Z,6.15
2022-10-28T00:03:52.453Z,6.18
2022-10-28T00:06:22.158Z,6.25
2022-10-28T00:08:49.551Z,6.25
2022-10-28T00:11:28.401Z,6.05
2022-10-28T00:13:56.816Z,5.87
2022-10-28T00:16:27.291Z,5.93
2022-10-28T00:18:54.472Z,5.79
2022-10-28T00:21:26.921Z,5.84
2022-10-28T00:23:54.002Z,5.86
2022-10-28T00:26:32.442Z,5.85
2022-10-28T00:29:15.219Z,5.78
2022-10-28T00:31:42.510Z,5.79
2022-10-28T00:34:18.650Z,5.86
2022-10-28T00:36:47.178Z,6.00
2022-10-28T00:39:22.358Z,5.94
2022-10-28T00:41:54.507Z,5.93
2022-10-28T00:44:39.570Z,5.84
2022-10-28T00:47:14.706Z,5.77
2022-10-28T00:49:43.107Z,5.71
2022-10-28T00:52:15.987Z,5.67
2022-10-28T00:54:44.114Z,5.66
2022-10-28T00:57:16.155Z,5.51
2022-10-28T00:59:48.679Z,5.59
2022-10-28T01:02:15.837Z,5.55
2022-10-28T01:04:44.384Z,5.62
2022-10-28T01:07:11.632Z,5.67
2022-10-28T01:09:40.112Z,5.42
2022-10-28T01:12:12.691Z,5.49
2022-10-28T01:14:56.527Z,5.31
2022-10-28T01:17:39.817Z,5.31
2022-10-28T01:20:31.758Z,5.39
2022-10-28T01:23:28.017Z,5.55
2022-10-28T01:26:20.259Z,5.66
2022-10-28T01:29:25.395Z,5.77
2022-10-28T01:32:17.393Z,5.84
2022-10-28T01:34:59.712Z,5.66
2022-10-28T01:37:54.136Z,5.81
2022-10-28T01:40:36.598Z,5.84
2022-10-28T01:43:15.728Z,5.86
2022-10-28T01:46:00.475Z,5.94
2022-10-28T01:48:48.055Z,5.79
2022-10-28T01:51:25.051Z,5.88
2022-10-28T01:53:55.463Z,5.72
2022-10-28T01:56:27.570Z,5.71
2022-10-28T01:58:57.936Z,5.71
2022-10-28T02:01:25.294Z,5.55
2022-10-28T02:03:53.342Z,5.65
2022-10-28T02:06:22.949Z,5.61
2022-10-28T02:09:04.338Z,5.71
2022-10-28T02:11:33.687Z,5.71
2022-10-28T02:14:16.847Z,5.42
2022-10-28T02:16:56.897Z,5.49
2022-10-28T02:19:33.824Z,5.74
2022-10-28T02:22:12.487Z,5.74
2022-10-28T02:25:06.161Z,5.80
2022-10-28T02:27:59.154Z,5.71
2022-10-28T02:30:31.335Z,5.76
2022-10-28T02:33:01.177Z,5.79
2022-10-28T02:35:49.665Z,5.71
2022-10-28T02:38:22.107Z,5.71
2022-10-28T02:40:54.074Z,5.70
2022-10-28T02:43:23.742Z,5.73
2022-10-28T02:45:57.359Z,5.85
2022-10-28T02:48:31.594Z,5.78
2022-10-28T02:51:06.298Z,5.71
2022-10-28T02:53:43.010Z,5.63
2022-10-28T02:56:13.176Z,5.39
2022-10-28T02:58:40.791Z,5.61
2022-10-28T03:01:07.781Z,5.61
2022-10-28T03:03:34.676Z,5.71
2022-10-28T03:06:01.389Z,5.79
2022-10-28T03:08:28.096Z,5.78
2022-10-28T03:10:54.859Z,5.69
2022-10-28T03:13:21.551Z,5.64
2022-10-28T03:15:48.218Z,5.55
2022-10-28T03:18:14.875Z,5.56
2022-10-28T03:20:41.745Z,5.52
2022-10-28T03:23:08.405Z,5.57
2022-10-28T03:25:35.105Z,5.56
2022-10-28T03:28:01.728Z,5.66
2022-10-28T03:30:28.359Z,5.68
2022-10-28T03:32:55.284Z,5.66
2022-10-28T03:35:22.188Z,5.70
2022-10-28T03:37:48.908Z,5.70
2022-10-28T03:40:15.915Z,5.48
2022-10-28T03:42:43.004Z,5.57
2022-10-28T03:45:10.320Z,5.37
2022-10-28T03:47:37.189Z,5.20
2022-10-28T03:50:04.141Z,5.37
2022-10-28T03:52:30.828Z,5.33
2022-10-28T03:54:57.492Z,5.44
2022-10-28T03:57:24.222Z,5.45
2022-10-28T03:59:51.002Z,5.39
2022-10-28T04:02:17.944Z,5.44
2022-10-28T04:04:44.755Z,5.31
2022-10-28T04:07:11.404Z,5.35
2022-10-28T04:09:38.136Z,5.33
2022-10-28T04:14:37.691Z,5.45
2022-10-28T04:17:04.584Z,5.42
2022-10-28T04:19:31.237Z,5.43
2022-10-28T04:21:57.942Z,5.48
2022-10-28T04:24:24.678Z,5.56
2022-10-28T04:26:51.341Z,5.33
2022-10-28T04:29:19.401Z,5.55
2022-10-28T04:31:48.664Z,5.59
2022-10-28T04:34:18.133Z,5.63
2022-10-28T04:36:44.783Z,5.44
2022-10-28T04:39:11.512Z,5.46
2022-10-28T04:41:38.278Z,5.60
2022-10-28T04:44:05.056Z,5.59
2022-10-28T04:46:31.797Z,5.47
2022-10-28T04:48:58.444Z,5.69
2022-10-28T04:51:25.141Z,5.54
2022-10-28T04:53:52.248Z,5.66
2022-10-28T04:56:18.942Z,5.61
2022-10-28T04:58:47.550Z,5.86
2022-10-28T05:01:14.305Z,5.62
2022-10-28T05:03:41.001Z,5.62
2022-10-28T05:06:07.781Z,5.76
2022-10-28T05:08:34.408Z,5.84
2022-10-28T05:11:01.130Z,5.81
2022-10-28T05:13:27.913Z,5.98
2022-10-28T05:15:54.530Z,5.82
2022-10-28T05:18:21.261Z,5.85
2022-10-28T05:20:52.875Z,5.86
2022-10-28T05:23:19.648Z,5.86
2022-10-28T05:25:46.327Z,5.77
2022-10-28T05:28:13.018Z,5.92
2022-10-28T05:30:39.669Z,5.85
2022-10-28T05:33:06.344Z,6.04
2022-10-28T05:35:33.066Z,6.05
2022-10-28T05:37:59.950Z,6.12
2022-10-28T05:40:26.755Z,6.16
2022-10-28T05:42:53.638Z,6.15
2022-10-28T05:45:20.567Z,6.20
2022-10-28T05:47:48.617Z,6.21
2022-10-28T05:50:17.295Z,6.42
2022-10-28T05:52:48.562Z,6.25
2022-10-28T05:55:16.207Z,6.41
2022-10-28T05:57:43.198Z,6.21
2022-10-28T06:00:11.025Z,6.47
2022-10-28T06:02:37.628Z,6.37
2022-10-28T06:05:04.745Z,6.47
2022-10-28T06:07:31.546Z,6.40
2022-10-28T06:09:58.196Z,7.19
2022-10-28T06:12:23.443Z,8.21
2022-10-28T06:14:50.222Z,9.63
2022-10-28T06:17:16.863Z,10.36
2022-10-28T06:19:43.590Z,10.55
2022-10-28T06:22:10.646Z,11.80
2022-10-28T06:24:37.422Z,11.05
2022-10-28T06:27:04.341Z,12.00
2022-10-28T06:29:31.206Z,13.19
2022-10-28T06:31:57.977Z,14.73
2022-10-28T06:34:24.687Z,15.32
2022-10-28T06:36:51.455Z,16.81
2022-10-28T06:39:18.136Z,17.22
2022-10-28T06:41:44.847Z,18.51
2022-10-28T06:44:11.511Z,18.13
2022-10-28T06:46:39.696Z,18.31
2022-10-28T06:49:06.662Z,19.41
2022-10-28T06:51:33.318Z,18.39
2022-10-28T06:54:00.380Z,17.94
2022-10-28T06:56:27.230Z,18.35
2022-10-28T06:58:55.060Z,18.67
2022-10-28T07:01:22.474Z,17.73
2022-10-28T07:03:49.389Z,17.52
2022-10-28T07:06:16.973Z,17.32
2022-10-28T07:08:43.887Z,17.51
2022-10-28T07:11:10.508Z,17.60
2022-10-28T07:13:37.251Z,18.57
2022-10-28T07:16:05.279Z,18.72
2022-10-28T07:18:32.044Z,17.66
2022-10-28T07:21:00.251Z,18.04
2022-10-28T07:23:27.290Z,18.41
2022-10-28T07:25:55.642Z,18.91
2022-10-28T07:28:25.056Z,19.52
2022-10-28T07:30:51.897Z,18.78
2022-10-28T07:33:18.654Z,21.12
2022-10-28T07:35:45.398Z,20.78
2022-10-28T07:38:12.230Z,19.60
2022-10-28T07:40:38.989Z,19.40
2022-10-28T07:43:05.645Z,19.11
2022-10-28T07:45:32.344Z,19.34
2022-10-28T07:47:58.982Z,20.53
2022-10-28T07:50:25.741Z,20.48
2022-10-28T07:52:52.745Z,20.57
2022-10-28T07:55:21.556Z,21.51
2022-10-28T07:57:48.878Z,21.10
2022-10-28T08:00:15.821Z,21.30
2022-10-28T08:02:42.604Z,21.32
2022-10-28T08:05:09.732Z,21.12
2022-10-28T08:07:38.626Z,20.66
2022-10-28T08:10:06.733Z,20.42
2022-10-28T08:12:33.762Z,20.97
2022-10-28T08:15:00.455Z,21.22
2022-10-28T08:17:27.166Z,20.13
2022-10-28T08:19:53.852Z,19.31
2022-10-28T08:22:20.516Z,20.77
2022-10-28T08:24:47.192Z,20.46
2022-10-28T08:27:13.845Z,20.64
2022-10-28T08:29:40.659Z,20.12
2022-10-28T08:32:10.388Z,20.58
2022-10-28T08:34:39.490Z,20.06
2022-10-28T08:37:09.624Z,20.09
2022-10-28T08:39:36.386Z,19.99
2022-10-28T08:42:22.684Z,19.86
2022-10-28T08:45:38.003Z,19.78
2022-10-28T08:48:10.593Z,20.76
2022-10-28T08:50:51.051Z,21.48
2022-10-28T08:53:37.787Z,20.59
2022-10-28T08:56:14.330Z,20.23
2022-10-28T08:58:44.184Z,20.69
2022-10-28T09:01:21.535Z,20.75
2022-10-28T09:03:51.300Z,19.92
2022-10-28T09:06:17.979Z,20.10
2022-10-28T09:08:50.249Z,20.35
2022-10-28T09:11:30.066Z,19.69
2022-10-28T09:14:17.969Z,20.40
2022-10-28T09:17:04.019Z,20.78
2022-10-28T09:19:42.836Z,21.32
2022-10-28T09:22:28.363Z,20.62
2022-10-28T09:25:04.900Z,21.37
2022-10-28T09:27:57.033Z,21.06
2022-10-28T09:30:42.924Z,20.89
2022-10-28T09:33:29.676Z,21.20
2022-10-28T09:35:57.051Z,21.89
2022-10-28T09:38:40.876Z,20.76
2022-10-28T09:41:33.492Z,21.68
2022-10-28T09:44:19.538Z,22.17
2022-10-28T09:46:53.844Z,22.32
2022-10-28T09:49:34.607Z,21.22
2022-10-28T09:52:25.188Z,20.96
2022-10-28T09:54:53.846Z,20.85
2022-10-28T09:57:22.490Z,21.37
2022-10-28T09:59:49.231Z,21.56
2022-10-28T10:02:33.415Z,21.99
2022-10-28T10:05:02.098Z,21.66
2022-10-28T10:07:43.408Z,22.77
2022-10-28T10:10:44.834Z,21.77
2022-10-28T10:13:13.717Z,21.69
2022-10-28T10:15:46.651Z,21.33
2022-10-28T10:18:20.106Z,21.76
2022-10-28T10:20:51.116Z,22.44
2022-10-28T10:26:09.726Z,22.74
2022-10-28T10:28:50.813Z,22.96
2022-10-28T10:31:23.222Z,22.70
2022-10-28T10:33:55.749Z,23.46
2022-10-28T10:36:28.480Z,22.36
2022-10-28T10:38:59.987Z,22.44
2022-10-28T10:41:41.333Z,22.99
2022-10-28T10:44:32.692Z,23.70
2022-10-28T10:47:06.011Z,23.55
2022-10-28T10:49:34.915Z,23.14
2022-10-28T10:52:18.115Z,23.07
2022-10-28T10:55:05.137Z,21.92
2022-10-28T10:57:33.588Z,21.97
2022-10-28T11:00:01.174Z,22.30
2022-10-28T11:02:35.022Z,22.53
2022-10-28T11:05:09.274Z,22.21
2022-10-28T11:07:40.879Z,21.16
2022-10-28T11:10:21.861Z,21.70
2022-10-28T11:13:01.631Z,21.40
2022-10-28T11:15:30.212Z,21.30
2022-10-28T11:18:04.069Z,22.13
2022-10-28T11:20:48.787Z,22.11
2022-10-28T11:23:31.358Z,22.02
2022-10-28T11:26:13.849Z,22.40
2022-10-28T11:29:00.795Z,22.41
2022-10-28T11:31:27.351Z,23.05
2022-10-28T11:34:07.543Z,22.73
2022-10-28T11:36:40.021Z,22.32
2022-10-28T11:39:51.606Z,22.56
2022-10-28T11:42:45.450Z,22.94
2022-10-28T11:45:39.757Z,21.94
2022-10-28T11:48:22.720Z,21.35
2022-10-28T11:50:52.877Z,22.35
2022-10-28T11:53:28.951Z,22.16
2022-10-28T11:56:09.113Z,21.38
2022-10-28T11:58:53.558Z,22.14
2022-10-28T12:01:39.152Z,21.68
2022-10-28T12:04:14.788Z,22.47
2022-10-28T12:07:09.784Z,22.34
2022-10-28T12:09:36.393Z,21.93
2022-10-28T12:12:32.758Z,21.73
2022-10-28T12:15:11.456Z,21.40
2022-10-28T12:17:44.367Z,21.80
2022-10-28T12:20:28.361Z,21.30
2022-10-28T12:22:58.986Z,21.57
2022-10-28T12:25:32.993Z,21.12
2022-10-28T12:28:05.010Z,20.43
2022-10-28T12:30:36.332Z,20.41
2022-10-28T12:33:39.960Z,19.96
2022-10-28T12:36:10.194Z,20.08
2022-10-28T12:38:44.418Z,20.32
2022-10-28T12:41:21.373Z,19.82
2022-10-28T12:43:52.142Z,19.99
2022-10-28T12:46:25.421Z,19.49
2022-10-28T12:48:59.257Z,19.54
2022-10-28T12:51:31.345Z,19.78
2022-10-28T12:54:15.591Z,19.91
2022-10-28T12:56:52.778Z,19.80
2022-10-28T12:59:30.282Z,19.36
2022-10-28T13:02:01.339Z,19.48
2022-10-28T13:04:28.889Z,19.70
2022-10-28T13:06:58.770Z,19.48
2022-10-28T13:09:37.992Z,19.14
2022-10-28T13:12:18.175Z,19.48
2022-10-28T13:14:53.881Z,19.51
2022-10-28T13:17:58.260Z,19.63
2022-10-28T13:21:02.476Z,19.08
2022-10-28T13:23:47.966Z,19.13
2022-10-28T13:26:17.535Z,18.98
2022-10-28T13:28:49.032Z,18.68
2022-10-28T13:31:19.903Z,18.93
2022-10-28T13:33:58.506Z,19.13
2022-10-28T13:36:28.655Z,18.97
2022-10-28T13:39:05.434Z,19.00
2022-10-28T13:41:43.343Z,18.88
2022-10-28T13:44:19.215Z,18.74
2022-10-28T13:47:22.447Z,18.59
2022-10-28T13:50:11.400Z,18.39
2022-10-28T13:52:46.599Z,18.22
2022-10-28T13:55:27.186Z,18.36
2022-10-28T13:58:19.084Z,18.23
2022-10-28T14:00:49.135Z,18.21
2022-10-28T14:03:22.064Z,18.22
2022-10-28T14:05:49.136Z,18.26
2022-10-28T14:08:38.366Z,18.20
2022-10-28T14:11:08.344Z,17.78
2022-10-28T14:13:59.864Z,17.80
2022-10-28T14:16:35.127Z,17.65
2022-10-28T14:19:10.880Z,17.80
2022-10-28T14:21:53.479Z,17.68
2022-10-28T14:24:34.934Z,17.28
2022-10-28T14:27:08.395Z,16.97
2022-10-28T14:29:49.184Z,17.03
2022-10-28T14:32:31.431Z,16.55
2022-10-28T14:35:10.339Z,16.44
2022-10-28T14:37:58.621Z,15.72
2022-10-28T14:40:42.562Z,15.06
2022-10-28T14:43:39.197Z,15.38
2022-10-28T14:46:17.975Z,15.47
2022-10-28T14:48:51.731Z,15.40
2022-10-28T14:51:27.900Z,15.20
2022-10-28T14:53:59.458Z,15.26
2022-10-28T14:56:29.365Z,14.92
2022-10-28T14:59:22.252Z,14.96
2022-10-28T15:02:18.487Z,14.80
2022-10-28T15:04:47.712Z,14.72
2022-10-28T15:07:20.524Z,14.40
2022-10-28T15:09:53.833Z,14.37
2022-10-28T15:12:22.785Z,14.39
2022-10-28T15:14:53.419Z,14.02
2022-10-28T15:17:27.179Z,14.09
2022-10-28T15:19:59.568Z,13.77
2022-10-28T15:22:33.485Z,13.35
2022-10-28T15:25:01.530Z,13.28
2022-10-28T15:27:35.238Z,13.11
2022-10-28T15:30:03.124Z,13.26
2022-10-28T15:32:35.140Z,12.99
2022-10-28T15:35:27.304Z,12.64
2022-10-28T15:38:01.450Z,12.58
2022-10-28T15:40:28.290Z,12.58
2022-10-28T15:43:02.893Z,12.59
2022-10-28T15:45:31.904Z,12.44
2022-10-28T15:48:00.541Z,12.47
2022-10-28T15:50:35.085Z,12.41
2022-10-28T15:53:08.454Z,12.37
2022-10-28T15:56:02.366Z,12.13
2022-10-28T15:58:22.627Z,11.90
2022-10-28T16:00:54.125Z,12.02
2022-10-28T16:06:00.315Z,11.80
2022-10-28T16:08:30.262Z,11.69
2022-10-28T16:11:03.571Z,11.68
2022-10-28T16:13:33.706Z,11.47
2022-10-28T16:16:09.687Z,11.31
2022-10-28T16:18:43.985Z,10.87
2022-10-28T16:21:19.727Z,11.05
2022-10-28T16:23:49.720Z,11.08
2022-10-28T16:26:16.353Z,10.77
2022-10-28T16:28:45.258Z,10.66
2022-10-28T16:31:16.421Z,10.71
2022-10-28T16:33:43.514Z,10.46
2022-10-28T16:36:10.683Z,10.29
2022-10-28T16:38:37.817Z,10.09
2022-10-28T16:41:06.505Z,9.89
2022-10-28T16:43:33.461Z,10.27
2022-10-28T16:46:01.054Z,9.87
2022-10-28T16:48:29.654Z,10.02
2022-10-28T16:51:00.819Z,9.94
2022-10-28T16:53:27.932Z,9.78
2022-10-28T16:56:00.745Z,9.66
2022-10-28T16:58:29.199Z,9.82
2022-10-28T17:00:56.641Z,9.65
2022-10-28T17:03:23.331Z,9.40
2022-10-28T17:05:50.035Z,9.57
2022-10-28T17:08:31.096Z,9.14
2022-10-28T17:11:05.776Z,8.91
2022-10-28T17:13:34.334Z,8.96
2022-10-28T17:16:01.448Z,8.92
2022-10-28T17:18:28.075Z,9.13
2022-10-28T17:21:02.629Z,8.98
2022-10-28T17:23:30.024Z,8.65
2022-10-28T17:25:59.131Z,8.63
2022-10-28T17:28:26.113Z,8.53
2022-10-28T17:30:53.049Z,8.61
2022-10-28T17:33:19.959Z,8.43
2022-10-28T17:35:46.685Z,8.73
2022-10-28T17:38:13.416Z,8.62
2022-10-28T17:40:40.080Z,8.55
2022-10-28T17:43:06.773Z,8.21
2022-10-28T17:45:33.787Z,7.87
2022-10-28T17:48:00.471Z,8.06
2022-10-28T17:50:27.144Z,8.29
2022-10-28T17:52:54.026Z,8.36
2022-10-28T17:55:20.893Z,8.04
2022-10-28T17:57:47.605Z,8.20
2022-10-28T18:00:14.981Z,7.82
2022-10-28T18:02:41.668Z,8.18
2022-10-28T18:05:08.586Z,8.02
2022-10-28T18:07:35.330Z,8.09
2022-10-28T18:10:02.215Z,7.92
2022-10-28T18:12:28.970Z,7.63
2022-10-28T18:14:55.585Z,7.71
2022-10-28T18:17:22.331Z,7.62
2022-10-28T18:19:48.940Z,7.63
2022-10-28T18:22:15.873Z,7.57
2022-10-28T18:24:42.777Z,7.34
2022-10-28T18:27:09.934Z,7.35
2022-10-28T18:29:36.598Z,7.09
2022-10-28T18:32:04.672Z,7.37
2022-10-28T18:34:32.096Z,7.38
2022-10-28T18:36:59.088Z,7.17
2022-10-28T18:39:25.757Z,7.13
2022-10-28T18:41:52.453Z,7.31
2022-10-28T18:44:21.683Z,7.07
2022-10-28T18:46:48.525Z,6.95
2022-10-28T18:49:15.149Z,6.99
2022-10-28T18:51:41.920Z,6.83
2022-10-28T18:54:08.622Z,6.64
2022-10-28T18:56:35.301Z,6.95
2022-10-28T18:59:03.881Z,6.97
2022-10-28T19:01:31.938Z,6.85
2022-10-28T19:04:00.938Z,6.74
2022-10-28T19:06:32.426Z,6.65
2022-10-28T19:09:02.261Z,6.76
2022-10-28T19:11:31.250Z,6.48
2022-10-28T19:13:59.899Z,6.62
2022-10-28T19:16:28.133Z,6.47
2022-10-28T19:18:58.750Z,6.22
2022-10-28T19:21:26.742Z,6.48
2022-10-28T19:23:54.017Z,6.57
2022-10-28T19:26:21.174Z,6.22
2022-10-28T19:28:49.501Z,6.64
2022-10-28T19:31:18.875Z,6.76
2022-10-28T19:33:45.646Z,6.83
2022-10-28T19:36:33.593Z,6.91
2022-10-28T19:39:00.318Z,6.40
2022-10-28T19:41:29.533Z,6.60
2022-10-28T19:44:03.367Z,6.06
2022-10-28T19:46:35.536Z,6.03
2022-10-28T19:49:05.770Z,6.14
2022-10-28T19:51:39.173Z,6.20
2022-10-28T19:54:09.591Z,6.00
2022-10-28T19:56:37.925Z,6.37
2022-10-28T19:59:06.189Z,6.00
2022-10-28T20:01:35.583Z,5.92
2022-10-28T20:04:02.300Z,6.13
2022-10-28T20:06:37.293Z,5.98
2022-10-28T20:09:04.616Z,6.02
2022-10-28T20:11:33.992Z,6.03
2022-10-28T20:14:04.321Z,6.11
2022-10-28T20:16:33.013Z,5.86
2022-10-28T20:18:59.951Z,5.66
2022-10-28T20:21:33.309Z,5.94
2022-10-28T20:24:00.623Z,5.70
2022-10-28T20:26:29.954Z,5.59
2022-10-28T20:28:58.114Z,5.74
2022-10-28T20:31:27.241Z,5.26
2022-10-28T20:33:56.794Z,5.40
2022-10-28T20:36:29.074Z,5.67
2022-10-28T20:38:57.733Z,5.81
2022-10-28T20:41:26.688Z,5.72
2022-10-28T20:43:54.745Z,5.66
2022-10-28T20:46:23.112Z,5.78
2022-10-28T20:48:50.170Z,5.35
2022-10-28T20:51:17.169Z,5.70
2022-10-28T20:53:43.854Z,5.62
2022-10-28T20:56:20.082Z,5.64
2022-10-28T20:58:47.310Z,5.94
2022-10-28T21:01:17.321Z,5.68
2022-10-28T21:03:45.172Z,5.90
2022-10-28T21:08:41.107Z,5.80
2022-10-28T21:11:10.787Z,5.84
2022-10-28T21:13:37.447Z,5.69
2022-10-28T21:16:05.736Z,5.39
2022-10-28T21:18:33.289Z,5.58
2022-10-28T21:21:00.750Z,5.77
2022-10-28T21:23:28.103Z,5.82
2022-10-28T21:25:56.858Z,5.55
2022-10-28T21:28:23.993Z,5.53
2022-10-28T21:30:50.690Z,5.51
2022-10-28T21:33:20.096Z,5.50
2022-10-28T21:35:55.234Z,5.51
2022-10-28T21:38:21.863Z,5.47
2022-10-28T21:40:48.522Z,5.30
2022-10-28T21:43:15.690Z,5.32
2022-10-28T21:45:42.354Z,5.03
2022-10-28T21:48:08.984Z,4.98
2022-10-28T21:50:35.654Z,5.19
2022-10-28T21:53:04.148Z,5.33
2022-10-28T21:55:46.135Z,5.37
2022-10-28T21:58:15.040Z,5.52
2022-10-28T22:00:43.060Z,5.17
2022-10-28T22:03:11.279Z,5.15
2022-10-28T22:05:38.060Z,5.05
2022-10-28T22:08:05.344Z,5.07
2022-10-28T22:10:32.254Z,5.31
2022-10-28T22:12:58.894Z,5.23
2022-10-28T22:15:25.709Z,5.28
2022-10-28T22:17:52.653Z,5.15
2022-10-28T22:20:19.495Z,4.75
2022-10-28T22:22:46.158Z,4.72
2022-10-28T22:25:12.823Z,4.84
2022-10-28T22:27:39.542Z,4.95
2022-10-28T22:30:06.665Z,4.82
2022-10-28T22:32:33.382Z,5.02
2022-10-28T22:35:00.043Z,5.03
2022-10-28T22:37:26.688Z,5.02
2022-10-28T22:39:53.321Z,5.03
2022-10-28T22:42:19.983Z,5.21
2022-10-28T22:44:46.675Z,5.12
2022-10-28T22:47:13.314Z,5.06
2022-10-28T22:49:39.952Z,4.98
2022-10-28T22:52:06.671Z,4.97
2022-10-28T22:54:33.268Z,4.66
2022-10-28T22:56:59.937Z,4.61
2022-10-28T22:59:26.585Z,4.76
2022-10-28T23:01:53.351Z,4.85
2022-10-28T23:04:20.157Z,4.65
2022-10-28T23:06:46.888Z,4.60
2022-10-28T23:09:13.497Z,4.71
2022-10-28T23:11:40.121Z,4.82
2022-10-28T23:14:06.885Z,4.94
2022-10-28T23:16:33.604Z,4.95
2022-10-28T23:19:00.990Z,4.94
2022-10-28T23:21:27.620Z,4.67
2022-10-28T23:23:59.541Z,4.55
2022-10-28T23:26:28.440Z,4.75
2022-10-28T23:28:57.901Z,4.47
2022-10-28T23:31:24.565Z,4.48
2022-10-28T23:33:52.372Z,4.51
2022-10-28T23:36:19.004Z,4.40
2022-10-28T23:38:45.779Z,4.63
2022-10-28T23:41:16.351Z,4.60
2022-10-28T23:43:43.056Z,4.59
2022-10-28T23:46:10.812Z,4.39
2022-10-28T23:48:37.912Z,4.34
2022-10-28T23:51:04.709Z,4.31
2022-10-28T23:53:31.674Z,4.21
2022-10-28T23:55:58.731Z,4.15
2022-10-28T23:58:25.745Z,4.14
